createdAt,value
2019-01-21T00:01:15.623Z,2.30
2019-01-21T00:03:43.810Z,2.30
2019-01-21T00:06:13.304Z,2.20
2019-01-21T00:08:41.989Z,2.20
2019-01-21T00:11:10.193Z,2.20
2019-01-21T00:13:39.089Z,1.80
2019-01-21T00:16:07.244Z,1.70
2019-01-21T00:18:35.648Z,1.40
2019-01-21T00:21:03.819Z,1.10
2019-01-21T00:23:31.974Z,1.10
2019-01-21T00:26:00.158Z,0.70
2019-01-21T00:28:28.315Z,0.40
2019-01-21T00:30:57.877Z,0.30
2019-01-21T00:33:26.811Z,0.10
2019-01-21T00:35:55.018Z,0.00
2019-01-21T00:38:23.220Z,0.20
2019-01-21T00:40:51.733Z,0.30
2019-01-21T00:43:20.330Z,0.10
2019-01-21T00:45:48.513Z,0.20
2019-01-21T00:48:18.003Z,0.50
2019-01-21T00:50:47.221Z,0.70
2019-01-21T00:53:15.377Z,0.60
2019-01-21T00:55:44.577Z,0.80
2019-01-21T00:58:12.750Z,0.80
2019-01-21T01:00:42.966Z,0.80
2019-01-21T01:03:11.198Z,0.70
2019-01-21T01:05:40.725Z,0.80
2019-01-21T01:08:09.186Z,0.80
2019-01-21T01:10:37.391Z,0.60
2019-01-21T01:13:06.041Z,0.40
2019-01-21T01:15:35.177Z,0.40
2019-01-21T01:18:09.393Z,-0.10
2019-01-21T01:20:37.856Z,0.00
2019-01-21T01:23:06.313Z,0.00
2019-01-21T01:25:35.306Z,0.40
2019-01-21T01:28:03.542Z,0.50
2019-01-21T01:30:31.695Z,0.60
2019-01-21T01:33:00.195Z,0.20
2019-01-21T01:35:28.347Z,0.00
2019-01-21T01:37:56.569Z,0.00
2019-01-21T01:40:24.828Z,0.20
2019-01-21T01:42:53.269Z,0.10
2019-01-21T01:45:25.844Z,0.20
2019-01-21T01:48:00.198Z,0.20
2019-01-21T01:50:28.721Z,0.20
2019-01-21T01:52:57.010Z,0.00
2019-01-21T01:55:26.361Z,0.00
2019-01-21T01:57:56.143Z,-0.20
2019-01-21T02:00:24.695Z,0.20
2019-01-21T02:02:54.189Z,0.40
2019-01-21T02:05:23.314Z,0.20
2019-01-21T02:07:51.411Z,0.10
2019-01-21T02:10:19.935Z,0.00
2019-01-21T02:12:48.165Z,-0.10
2019-01-21T02:15:16.600Z,-0.20
2019-01-21T02:17:51.847Z,-0.10
2019-01-21T02:20:13.501Z,0.00
2019-01-21T02:22:44.230Z,0.20
2019-01-21T02:25:13.414Z,0.30
2019-01-21T02:28:07.698Z,0.30
2019-01-21T02:31:26.771Z,0.20
2019-01-21T02:34:09.073Z,-0.20
2019-01-21T02:37:14.895Z,-1.00
2019-01-21T02:40:02.608Z,-1.40
2019-01-21T02:42:54.989Z,-1.20
2019-01-21T02:45:51.131Z,-1.00
2019-01-21T02:48:57.156Z,-0.80
2019-01-21T02:52:00.103Z,-0.90
2019-01-21T02:54:39.413Z,-1.10
2019-01-21T02:57:51.304Z,-1.00
2019-01-21T03:00:39.458Z,-0.70
2019-01-21T03:03:32.066Z,-0.70
2019-01-21T03:06:38.128Z,-0.50
2019-01-21T03:09:29.100Z,-0.60
2019-01-21T03:12:22.210Z,-0.40
2019-01-21T03:15:25.491Z,-0.50
2019-01-21T03:18:29.600Z,-0.40
2019-01-21T03:21:32.396Z,-0.70
2019-01-21T03:24:44.577Z,-0.90
2019-01-21T03:28:01.370Z,-0.70
2019-01-21T03:31:20.684Z,-0.80
2019-01-21T03:34:46.574Z,-0.80
2019-01-21T03:37:42.311Z,-0.80
2019-01-21T03:40:53.757Z,-0.60
2019-01-21T03:44:10.674Z,-0.60
2019-01-21T03:47:20.216Z,-1.00
2019-01-21T03:50:27.149Z,-1.70
2019-01-21T03:53:24.037Z,-1.10
2019-01-21T03:55:56.203Z,-1.00
2019-01-21T03:58:40.786Z,-1.80
2019-01-21T04:01:40.267Z,-1.40
2019-01-21T04:04:46.343Z,-1.60
2019-01-21T04:07:52.503Z,-1.90
2019-01-21T04:10:59.493Z,-1.70
2019-01-21T04:14:33.967Z,-1.40
2019-01-21T04:17:34.431Z,-1.50
2019-01-21T04:20:22.298Z,-1.70
2019-01-21T04:23:11.229Z,-1.50
2019-01-21T04:26:00.833Z,-1.50
2019-01-21T04:28:36.396Z,-1.50
2019-01-21T04:31:46.438Z,-1.70
2019-01-21T04:35:05.587Z,-1.80
2019-01-21T04:37:53.829Z,-1.90
2019-01-21T04:41:00.905Z,-2.30
2019-01-21T04:44:28.954Z,-2.40
2019-01-21T04:47:37.461Z,-2.20
2019-01-21T04:50:32.676Z,-2.10
2019-01-21T04:53:24.213Z,-2.00
2019-01-21T04:56:36.216Z,-1.80
2019-01-21T04:59:29.634Z,-2.00
2019-01-21T05:02:30.902Z,-1.90
2019-01-21T05:05:31.170Z,-1.90
2019-01-21T05:08:36.100Z,-2.10
2019-01-21T05:11:29.787Z,-1.90
2019-01-21T05:14:17.003Z,-1.50
2019-01-21T05:17:21.130Z,-1.40
2019-01-21T05:20:52.366Z,-1.60
2019-01-21T05:23:58.118Z,-1.70
2019-01-21T05:27:08.101Z,-1.80
2019-01-21T05:30:36.370Z,-2.00
2019-01-21T05:33:42.677Z,-2.40
2019-01-21T05:36:25.639Z,-1.90
2019-01-21T05:39:24.743Z,-1.60
2019-01-21T05:42:30.744Z,-1.80
2019-01-21T05:45:22.530Z,-1.60
2019-01-21T05:48:29.284Z,-1.40
2019-01-21T05:51:54.904Z,-1.40
2019-01-21T05:54:56.035Z,-1.10
2019-01-21T05:58:04.857Z,-1.00
2019-01-21T06:01:20.252Z,-1.20
2019-01-21T06:04:27.258Z,-1.20
2019-01-21T06:07:49.114Z,-1.30
2019-01-21T06:10:32.814Z,-1.30
2019-01-21T06:13:46.793Z,-1.30
2019-01-21T06:16:24.157Z,-1.30
2019-01-21T06:19:37.181Z,-1.50
2019-01-21T06:22:45.617Z,-1.40
2019-01-21T06:25:38.414Z,-1.70
2019-01-21T06:28:33.490Z,-1.50
2019-01-21T06:31:39.616Z,-1.50
2019-01-21T06:34:55.508Z,-1.40
2019-01-21T06:37:39.760Z,-1.50
2019-01-21T06:40:31.630Z,-1.60
2019-01-21T06:43:35.897Z,-1.40
2019-01-21T06:46:59.962Z,-1.30
2019-01-21T06:50:10.247Z,-1.60
2019-01-21T06:53:28.368Z,-1.70
2019-01-21T06:56:29.557Z,-1.60
2019-01-21T06:59:27.107Z,-1.50
2019-01-21T07:02:36.343Z,-1.50
2019-01-21T07:05:23.057Z,-1.70
2019-01-21T07:08:25.766Z,-2.00
2019-01-21T07:11:19.364Z,-1.80
2019-01-21T07:14:18.564Z,-1.60
2019-01-21T07:16:58.709Z,-1.70
2019-01-21T07:20:12.412Z,-1.90
2019-01-21T07:23:31.857Z,-1.90
2019-01-21T07:26:11.758Z,-2.10
2019-01-21T07:29:12.237Z,-2.10
2019-01-21T07:32:18.022Z,-2.10
2019-01-21T07:35:31.195Z,-1.90
2019-01-21T07:38:21.794Z,-2.30
2019-01-21T07:41:12.736Z,-2.20
2019-01-21T07:44:25.393Z,-2.80
2019-01-21T07:47:36.898Z,-2.70
2019-01-21T07:50:37.067Z,-2.30
2019-01-21T07:53:27.871Z,-2.00
2019-01-21T07:56:33.842Z,-2.50
2019-01-21T07:59:32.108Z,-2.80
2019-01-21T08:02:21.469Z,-2.70
2019-01-21T08:05:31.977Z,-2.40
2019-01-21T08:08:13.803Z,-2.30
2019-01-21T08:11:03.283Z,-1.50
2019-01-21T08:13:44.108Z,-1.50
2019-01-21T08:16:44.314Z,-1.10
2019-01-21T08:20:09.717Z,-0.60
2019-01-21T08:23:18.350Z,0.20
2019-01-21T08:26:15.701Z,0.20
2019-01-21T08:29:14.082Z,0.70
2019-01-21T08:32:24.533Z,0.70
2019-01-21T08:35:17.908Z,0.60
2019-01-21T08:38:15.402Z,0.40
2019-01-21T08:41:40.806Z,0.10
2019-01-21T08:44:51.072Z,-0.50
2019-01-21T08:47:29.740Z,-0.90
2019-01-21T08:51:01.088Z,-1.00
2019-01-21T08:53:52.274Z,-1.20
2019-01-21T08:57:01.864Z,-0.40
2019-01-21T08:59:49.235Z,-0.20
2019-01-21T09:02:58.754Z,-0.40
2019-01-21T09:05:55.854Z,-0.60
2019-01-21T09:09:07.990Z,-1.10
2019-01-21T09:12:31.119Z,-1.10
2019-01-21T09:15:34.583Z,-0.70
2019-01-21T09:18:53.333Z,0.40
2019-01-21T09:21:49.713Z,0.40
2019-01-21T09:25:00.345Z,0.90
2019-01-21T09:28:11.200Z,0.40
2019-01-21T09:31:03.250Z,-0.20
2019-01-21T09:34:18.301Z,-0.50
2019-01-21T09:37:21.836Z,-0.50
2019-01-21T09:40:27.152Z,-0.30
2019-01-21T09:43:13.154Z,-0.50
2019-01-21T09:46:25.842Z,-0.50
2019-01-21T09:48:54.398Z,-0.30
2019-01-21T09:51:22.804Z,-0.30
2019-01-21T09:53:56.339Z,-0.20
2019-01-21T09:56:28.077Z,0.10
2019-01-21T09:58:58.371Z,0.20
2019-01-21T10:01:26.577Z,0.20
2019-01-21T10:03:54.833Z,0.00
2019-01-21T10:06:45.556Z,0.20
2019-01-21T10:09:48.265Z,0.30
2019-01-21T10:13:08.692Z,0.30
2019-01-21T10:16:18.340Z,0.10
2019-01-21T10:19:11.065Z,0.00
2019-01-21T10:22:36.752Z,0.40
2019-01-21T10:25:33.367Z,0.70
2019-01-21T10:28:30.186Z,1.10
2019-01-21T10:31:35.166Z,1.40
2019-01-21T10:34:35.806Z,1.10
2019-01-21T10:38:01.267Z,0.90
2019-01-21T10:40:43.335Z,0.90
2019-01-21T10:43:48.195Z,1.00
2019-01-21T10:46:53.064Z,0.90
2019-01-21T10:49:57.501Z,0.80
2019-01-21T10:52:48.977Z,1.00
2019-01-21T10:55:39.633Z,1.40
2019-01-21T10:58:25.640Z,1.60
2019-01-21T11:01:42.536Z,1.50
2019-01-21T11:04:24.431Z,1.60
2019-01-21T11:07:31.335Z,1.70
2019-01-21T11:10:32.688Z,1.50
2019-01-21T11:13:44.399Z,1.70
2019-01-21T11:17:18.794Z,1.80
2019-01-21T11:20:15.669Z,1.70
2019-01-21T11:23:00.903Z,1.60
2019-01-21T11:26:06.581Z,1.60
2019-01-21T11:29:08.409Z,1.70
2019-01-21T11:31:55.306Z,2.00
2019-01-21T11:35:05.121Z,1.90
2019-01-21T11:38:01.607Z,2.00
2019-01-21T11:41:00.221Z,2.40
2019-01-21T11:44:00.252Z,2.30
2019-01-21T11:47:10.041Z,2.20
2019-01-21T11:50:22.214Z,2.20
2019-01-21T11:53:32.535Z,2.30
2019-01-21T11:56:16.298Z,2.50
2019-01-21T11:59:21.874Z,2.70
2019-01-21T12:02:18.266Z,2.70
2019-01-21T12:05:08.709Z,3.10
2019-01-21T12:08:34.406Z,2.90
2019-01-21T12:11:46.881Z,3.00
2019-01-21T12:14:51.732Z,3.20
2019-01-21T12:17:59.714Z,2.70
2019-01-21T12:21:15.443Z,2.80
2019-01-21T12:24:17.288Z,3.00
2019-01-21T12:27:17.052Z,3.00
2019-01-21T12:29:57.939Z,3.20
2019-01-21T12:32:59.563Z,3.00
2019-01-21T12:35:52.816Z,3.20
2019-01-21T12:38:45.956Z,3.50
2019-01-21T12:41:45.919Z,3.30
2019-01-21T12:44:42.991Z,3.20
2019-01-21T12:47:34.876Z,3.30
2019-01-21T12:50:43.690Z,3.40
2019-01-21T12:53:49.699Z,3.30
2019-01-21T12:57:16.104Z,3.10
2019-01-21T13:00:09.110Z,3.30
2019-01-21T13:03:07.730Z,3.40
2019-01-21T13:05:57.326Z,3.20
2019-01-21T13:08:43.186Z,3.10
2019-01-21T13:11:41.731Z,3.30
2019-01-21T13:14:57.974Z,3.20
2019-01-21T13:18:20.421Z,3.20
2019-01-21T13:21:51.437Z,3.50
2019-01-21T13:24:51.039Z,3.30
2019-01-21T13:27:46.188Z,3.70
2019-01-21T13:30:43.558Z,3.80
2019-01-21T13:33:36.923Z,4.00
2019-01-21T13:36:43.277Z,4.00
2019-01-21T13:39:49.230Z,3.70
2019-01-21T13:42:56.030Z,3.40
2019-01-21T13:46:14.260Z,3.70
2019-01-21T13:49:17.363Z,3.60
2019-01-21T13:52:05.194Z,3.70
2019-01-21T13:54:55.483Z,3.60
2019-01-21T13:58:20.312Z,3.70
2019-01-21T14:01:07.506Z,3.70
2019-01-21T14:04:17.715Z,4.00
2019-01-21T14:07:23.544Z,3.60
2019-01-21T14:10:25.786Z,3.90
2019-01-21T14:13:29.063Z,3.80
2019-01-21T14:16:12.981Z,3.70
2019-01-21T14:19:16.543Z,3.50
2019-01-21T14:22:12.139Z,2.90
2019-01-21T14:25:10.439Z,3.10
2019-01-21T14:28:14.566Z,3.50
2019-01-21T14:31:19.282Z,3.80
2019-01-21T14:34:07.445Z,3.80
2019-01-21T14:37:12.467Z,4.10
2019-01-21T14:39:53.618Z,4.00
2019-01-21T14:43:00.921Z,4.10
2019-01-21T14:46:14.469Z,4.10
2019-01-21T14:49:13.729Z,4.00
2019-01-21T14:52:24.255Z,3.80
2019-01-21T14:55:20.725Z,3.90
2019-01-21T14:58:35.670Z,4.00
2019-01-21T15:01:41.091Z,4.20
2019-01-21T15:04:50.823Z,4.20
2019-01-21T15:07:47.989Z,4.00
2019-01-21T15:10:36.836Z,3.50
2019-01-21T15:13:30.940Z,3.80
2019-01-21T15:16:20.494Z,3.40
2019-01-21T15:19:14.270Z,3.50
2019-01-21T15:22:24.847Z,3.50
2019-01-21T15:25:40.938Z,3.30
2019-01-21T15:28:37.042Z,3.50
2019-01-21T15:31:27.358Z,3.60
2019-01-21T15:34:10.913Z,3.70
2019-01-21T15:37:16.935Z,3.30
2019-01-21T15:40:25.764Z,3.50
2019-01-21T15:43:19.414Z,3.10
2019-01-21T15:46:30.330Z,2.90
2019-01-21T15:49:34.433Z,2.80
2019-01-21T15:52:50.524Z,2.80
2019-01-21T15:55:56.115Z,2.70
2019-01-21T15:59:11.527Z,2.90
2019-01-21T16:02:42.738Z,3.10
2019-01-21T16:06:07.370Z,3.20
2019-01-21T16:09:26.717Z,3.10
2019-01-21T16:12:07.142Z,3.10
2019-01-21T16:14:50.350Z,2.80
2019-01-21T16:17:48.810Z,2.50
2019-01-21T16:20:48.159Z,2.40
2019-01-21T16:24:10.453Z,2.50
2019-01-21T16:27:00.976Z,2.70
2019-01-21T16:30:04.908Z,2.10
2019-01-21T16:33:03.882Z,2.10
2019-01-21T16:36:10.625Z,1.80
2019-01-21T16:38:58.209Z,2.10
2019-01-21T16:41:51.755Z,2.00
2019-01-21T16:44:32.990Z,1.70
2019-01-21T16:47:03.289Z,2.00
2019-01-21T16:49:36.707Z,2.10
2019-01-21T16:52:14.783Z,2.20
2019-01-21T16:54:43.598Z,2.20
2019-01-21T16:57:12.780Z,2.10
2019-01-21T16:59:44.134Z,2.20
2019-01-21T17:02:12.533Z,2.30
2019-01-21T17:04:52.867Z,2.30
2019-01-21T17:07:21.071Z,2.00
2019-01-21T17:09:50.239Z,1.30
2019-01-21T17:12:18.441Z,1.00
2019-01-21T17:14:46.727Z,0.80
2019-01-21T17:17:14.986Z,1.30
2019-01-21T17:19:48.123Z,1.70
2019-01-21T17:22:19.412Z,1.60
2019-01-21T17:24:51.673Z,1.80
2019-01-21T17:27:21.973Z,2.00
2019-01-21T17:29:54.429Z,2.10
2019-01-21T17:32:23.283Z,2.00
2019-01-21T17:34:51.336Z,1.80
2019-01-21T17:37:19.496Z,1.60
2019-01-21T17:39:48.709Z,1.70
2019-01-21T17:42:17.124Z,1.50
2019-01-21T17:44:46.230Z,1.10
2019-01-21T17:47:16.933Z,1.10
2019-01-21T17:49:45.218Z,1.30
2019-01-21T17:52:13.569Z,1.50
2019-01-21T17:54:42.130Z,1.60
2019-01-21T17:57:12.094Z,1.40
2019-01-21T17:59:48.627Z,1.40
2019-01-21T18:02:19.116Z,1.10
2019-01-21T18:04:48.364Z,1.00
2019-01-21T18:07:17.772Z,0.70
2019-01-21T18:09:47.265Z,0.60
2019-01-21T18:12:15.421Z,0.80
2019-01-21T18:14:44.272Z,1.20
2019-01-21T18:17:13.543Z,1.30
2019-01-21T18:19:50.653Z,1.20
2019-01-21T18:22:18.915Z,0.80
2019-01-21T18:24:47.433Z,0.80
2019-01-21T18:27:16.517Z,0.80
2019-01-21T18:29:54.458Z,0.90
2019-01-21T18:32:23.680Z,1.10
2019-01-21T18:35:02.867Z,1.10
2019-01-21T18:37:33.502Z,1.10
2019-01-21T18:40:10.262Z,1.00
2019-01-21T18:42:38.474Z,0.90
2019-01-21T18:45:07.328Z,0.80
2019-01-21T18:47:36.583Z,0.80
2019-01-21T18:50:10.859Z,0.70
2019-01-21T18:52:39.039Z,0.70
2019-01-21T18:55:08.533Z,0.70
2019-01-21T18:57:36.727Z,0.60
2019-01-21T19:00:18.425Z,0.60
2019-01-21T19:02:53.035Z,0.50
2019-01-21T19:05:21.256Z,0.40
2019-01-21T19:07:51.688Z,0.30
2019-01-21T19:10:20.422Z,0.40
2019-01-21T19:12:48.760Z,0.10
2019-01-21T19:15:23.089Z,-0.30
2019-01-21T19:17:51.330Z,-0.20
2019-01-21T19:20:20.059Z,0.10
2019-01-21T19:22:48.313Z,0.20
2019-01-21T19:25:17.093Z,0.30
2019-01-21T19:27:45.301Z,0.20
2019-01-21T19:30:17.124Z,0.20
2019-01-21T19:32:45.752Z,0.30
2019-01-21T19:35:15.854Z,0.30
2019-01-21T19:37:44.333Z,0.20
2019-01-21T19:40:15.409Z,-0.30
2019-01-21T19:42:43.969Z,-0.60
2019-01-21T19:45:12.555Z,-0.30
2019-01-21T19:47:40.739Z,-0.10
2019-01-21T19:50:10.303Z,0.10
2019-01-21T19:52:38.542Z,0.20
2019-01-21T19:55:10.652Z,-0.60
2019-01-21T19:57:39.923Z,-0.60
2019-01-21T20:00:12.501Z,-0.30
2019-01-21T20:02:40.717Z,-0.10
2019-01-21T20:05:09.304Z,-0.10
2019-01-21T20:07:37.902Z,-0.40
2019-01-21T20:10:07.717Z,-0.40
2019-01-21T20:12:35.880Z,-0.60
2019-01-21T20:15:05.111Z,-0.90
2019-01-21T20:17:33.813Z,-1.00
2019-01-21T20:20:02.048Z,-0.80
2019-01-21T20:22:30.198Z,-0.50
2019-01-21T20:25:00.430Z,-0.30
2019-01-21T20:27:29.066Z,-0.30
2019-01-21T20:29:57.299Z,-0.30
2019-01-21T20:32:25.446Z,-0.30
2019-01-21T20:34:53.624Z,-0.30
2019-01-21T20:37:22.370Z,-0.30
2019-01-21T20:39:51.726Z,-0.40
2019-01-21T20:42:19.686Z,-0.60
2019-01-21T20:44:49.514Z,-0.40
2019-01-21T20:47:18.591Z,-0.40
2019-01-21T20:49:47.150Z,-0.80
2019-01-21T20:52:15.352Z,-1.20
2019-01-21T20:54:43.904Z,-1.00
2019-01-21T20:57:13.131Z,-0.70
2019-01-21T20:59:42.328Z,-0.50
2019-01-21T21:02:10.516Z,-1.10
2019-01-21T21:04:38.690Z,-1.50
2019-01-21T21:07:07.884Z,-1.30
2019-01-21T21:09:36.050Z,-1.10
2019-01-21T21:12:05.250Z,-0.80
2019-01-21T21:14:33.696Z,-1.10
2019-01-21T21:17:02.923Z,-1.00
2019-01-21T21:19:32.517Z,-1.40
2019-01-21T21:22:01.714Z,-1.40
2019-01-21T21:24:29.887Z,-1.30
2019-01-21T21:26:58.090Z,-1.40
2019-01-21T21:29:26.936Z,-1.10
2019-01-21T21:31:55.185Z,-0.70
2019-01-21T21:34:24.586Z,-0.90
2019-01-21T21:36:52.973Z,-0.80
2019-01-21T21:39:21.694Z,-0.80
2019-01-21T21:41:49.884Z,-0.90
2019-01-21T21:44:18.056Z,-1.10
2019-01-21T21:46:46.580Z,-1.20
2019-01-21T21:49:15.701Z,-1.10
2019-01-21T21:51:43.809Z,-1.40
2019-01-21T21:54:11.968Z,-1.40
2019-01-21T21:56:40.221Z,-1.30
2019-01-21T21:59:08.422Z,-1.40
2019-01-21T22:01:55.996Z,-1.20
2019-01-21T22:04:25.602Z,-0.90
2019-01-21T22:06:54.771Z,-0.60
2019-01-21T22:09:23.305Z,-0.50
2019-01-21T22:11:51.510Z,-0.50
2019-01-21T22:14:19.666Z,-0.50
2019-01-21T22:16:47.853Z,-0.40
2019-01-21T22:19:16.025Z,-0.70
2019-01-21T22:21:44.582Z,-0.90
2019-01-21T22:24:13.089Z,-0.80
2019-01-21T22:26:41.635Z,-0.80
2019-01-21T22:29:09.846Z,-0.90
2019-01-21T22:31:38.062Z,-0.80
2019-01-21T22:34:06.184Z,-0.60
2019-01-21T22:36:34.592Z,-1.00
2019-01-21T22:39:02.740Z,-1.00
2019-01-21T22:41:34.529Z,-1.30
2019-01-21T22:44:12.979Z,-1.40
2019-01-21T22:46:41.211Z,-1.60
2019-01-21T22:49:09.363Z,-1.50
2019-01-21T22:51:37.939Z,-1.20
2019-01-21T22:54:06.518Z,-1.10
2019-01-21T22:56:36.086Z,-0.90
2019-01-21T22:59:05.222Z,-1.60
2019-01-21T23:01:33.839Z,-1.40
2019-01-21T23:04:02.244Z,-1.10
2019-01-21T23:06:30.871Z,-1.00
2019-01-21T23:08:59.420Z,-0.90
2019-01-21T23:11:27.698Z,-1.10
2019-01-21T23:13:56.550Z,-1.50
2019-01-21T23:16:24.708Z,-2.00
2019-01-21T23:18:52.859Z,-2.00
2019-01-21T23:21:21.043Z,-2.00
2019-01-21T23:23:49.537Z,-1.90
2019-01-21T23:26:19.171Z,-1.50
2019-01-21T23:28:47.403Z,-1.20
2019-01-21T23:31:15.873Z,-1.20
2019-01-21T23:33:44.419Z,-1.30
2019-01-21T23:36:16.735Z,-1.60
2019-01-21T23:38:49.229Z,-1.30
2019-01-21T23:41:17.787Z,-1.20
2019-01-21T23:43:45.977Z,-1.30
2019-01-21T23:46:14.138Z,-1.20
2019-01-21T23:48:42.316Z,-1.50
2019-01-21T23:51:12.835Z,-2.10
2019-01-21T23:53:41.267Z,-2.40
2019-01-21T23:56:10.728Z,-2.30
2019-01-21T23:58:42.201Z,-2.30
